Time;durP1;ratioP1;P1;durP2;ratioP2;P2;SDS_P1;SDS_P2;PMS_P1;PMS_P2;Temp;Humidity;BMP_temperature;BMP_pressure;BME280_temperature;BME280_humidity;BME280_pressure;Samples;Min_cycle;Max_cycle;Signal;HPM_P1;HPM_P2
2022/08/31 00:04:49;;;;;;;1.88;1.00;;;;;;;;;;5060225;28;20461;-64
2022/08/31 00:07:15;;;;;;;2.10;1.17;;;;;;;;;;5050714;28;20044;-64
2022/08/31 00:09:41;;;;;;;4.15;1.10;;;;;;;;;;5050118;28;20036;-64
2022/08/31 00:12:08;;;;;;;2.10;1.05;;;;;;;;;;5048330;28;20453;-64
2022/08/31 00:14:34;;;;;;;2.72;0.80;;;;;;;;;;5050447;28;20048;-64
2022/08/31 00:17:00;;;;;;;1.50;1.00;;;;;;;;;;5050100;28;20049;-64
2022/08/31 00:19:26;;;;;;;2.65;0.70;;;;;;;;;;5051288;28;20033;-64
2022/08/31 00:21:52;;;;;;;1.75;0.80;;;;;;;;;;5060850;28;20044;-64
2022/08/31 00:24:18;;;;;;;1.17;0.90;;;;;;;;;;5049380;28;20051;-64
2022/08/31 00:26:44;;;;;;;1.77;0.65;;;;;;;;;;5043343;28;20037;-64
2022/08/31 00:29:10;;;;;;;2.03;0.80;;;;;;;;;;5051247;28;20039;-64
2022/08/31 00:31:36;;;;;;;3.17;1.05;;;;;;;;;;5063675;28;20111;-64
2022/08/31 00:34:03;;;;;;;1.50;1.00;;;;;;;;;;5055074;28;20037;-64
2022/08/31 00:36:29;;;;;;;1.98;1.00;;;;;;;;;;5050227;28;20041;-64
2022/08/31 00:38:55;;;;;;;2.83;1.40;;;;;;;;;;5050118;28;20380;-64
2022/08/31 00:41:23;;;;;;;2.13;0.90;;;;;;;;;;5041350;28;20037;-64
2022/08/31 00:43:50;;;;;;;2.95;0.73;;;;;;;;;;5058172;28;20048;-64
2022/08/31 00:46:19;;;;;;;1.95;0.80;;;;;;;;;;5058927;28;20155;-64
2022/08/31 00:48:51;;;;;;;2.65;0.80;;;;;;;;;;5063141;28;20040;-64
2022/08/31 00:51:17;;;;;;;1.70;0.77;;;;;;;;;;5041332;28;20048;-64
2022/08/31 00:53:44;;;;;;;1.60;0.70;;;;;;;;;;5048034;28;20047;-64
2022/08/31 00:56:10;;;;;;;2.13;0.70;;;;;;;;;;5051644;28;20067;-64
2022/08/31 00:58:36;;;;;;;2.15;0.73;;;;;;;;;;5048538;28;20048;-64
2022/08/31 01:01:03;;;;;;;2.97;0.80;;;;;;;;;;5054684;28;20107;-64
2022/08/31 01:03:29;;;;;;;1.67;0.80;;;;;;;;;;5049318;28;20037;-64
2022/08/31 01:05:55;;;;;;;1.27;0.63;;;;;;;;;;5050257;28;20052;-64
2022/08/31 01:08:21;;;;;;;1.38;0.60;;;;;;;;;;5044060;28;20124;-64
2022/08/31 01:10:47;;;;;;;1.25;0.77;;;;;;;;;;5051125;28;20059;-64
2022/08/31 01:13:14;;;;;;;0.90;0.68;;;;;;;;;;5058232;28;20048;-64
2022/08/31 01:15:44;;;;;;;2.40;0.60;;;;;;;;;;5051906;28;20040;-64
2022/08/31 01:18:10;;;;;;;1.75;0.60;;;;;;;;;;5041794;28;20124;-64
2022/08/31 01:20:52;;;;;;;1.88;0.70;;;;;;;;;;5038888;28;20029;-64
2022/08/31 01:23:24;;;;;;;1.45;0.68;;;;;;;;;;5049989;28;20045;-64
2022/08/31 01:25:51;;;;;;;1.13;0.60;;;;;;;;;;5051141;28;20041;-64
2022/08/31 01:28:17;;;;;;;1.73;0.60;;;;;;;;;;5035945;28;20055;-64
2022/08/31 01:30:44;;;;;;;0.85;0.55;;;;;;;;;;5059640;28;20455;-64
2022/08/31 01:33:12;;;;;;;0.90;0.47;;;;;;;;;;5049492;28;20556;-64
2022/08/31 01:35:39;;;;;;;0.88;0.50;;;;;;;;;;5036284;28;20063;-64
2022/08/31 01:38:05;;;;;;;1.15;0.60;;;;;;;;;;5054268;28;20068;-64
2022/08/31 01:40:36;;;;;;;1.95;0.50;;;;;;;;;;5049539;28;20041;-64
2022/08/31 01:43:02;;;;;;;;;;;;;;;;;;5050876;28;20045;-64
2022/08/31 01:45:28;;;;;;;0.52;0.40;;;;;;;;;;5052998;28;19924;-64
2022/08/31 01:47:55;;;;;;;0.80;0.50;;;;;;;;;;5052138;28;20124;-64
2022/08/31 01:50:21;;;;;;;0.63;0.43;;;;;;;;;;5051865;28;20041;-64
2022/08/31 01:52:47;;;;;;;0.80;0.50;;;;;;;;;;5066725;28;20178;-64
2022/08/31 01:55:13;;;;;;;2.13;0.50;;;;;;;;;;5057101;28;20044;-64
2022/08/31 01:57:39;;;;;;;1.55;0.40;;;;;;;;;;5052616;28;20037;-64
2022/08/31 02:00:07;;;;;;;1.38;0.45;;;;;;;;;;5064865;28;20040;-64
2022/08/31 02:02:33;;;;;;;0.70;0.50;;;;;;;;;;5063039;28;20539;-64
2022/08/31 02:05:00;;;;;;;1.15;0.60;;;;;;;;;;5046903;28;20045;-64
2022/08/31 02:07:26;;;;;;;1.70;0.60;;;;;;;;;;5072900;28;20045;-64
2022/08/31 02:09:52;;;;;;;1.60;0.57;;;;;;;;;;5066270;28;20061;-64
2022/08/31 02:12:18;;;;;;;1.80;0.47;;;;;;;;;;5049296;28;20064;-64
2022/08/31 02:14:44;;;;;;;1.23;0.70;;;;;;;;;;5051911;28;20037;-64
2022/08/31 02:17:10;;;;;;;1.23;0.40;;;;;;;;;;5052761;28;20047;-64
2022/08/31 02:19:36;;;;;;;1.02;0.60;;;;;;;;;;5047239;28;20442;-64
2022/08/31 02:22:02;;;;;;;1.70;0.50;;;;;;;;;;5056507;28;20064;-64
2022/08/31 02:24:28;;;;;;;0.82;0.70;;;;;;;;;;5053701;28;20094;-64
2022/08/31 02:26:54;;;;;;;0.98;0.60;;;;;;;;;;5051564;28;20052;-64
2022/08/31 02:29:21;;;;;;;1.27;0.57;;;;;;;;;;5063224;28;20032;-64
2022/08/31 02:31:47;;;;;;;0.55;0.35;;;;;;;;;;5046199;28;20083;-64
2022/08/31 02:34:13;;;;;;;0.50;0.50;;;;;;;;;;5042270;28;20114;-64
2022/08/31 02:36:39;;;;;;;0.50;0.40;;;;;;;;;;5060141;28;20113;-64
2022/08/31 02:39:05;;;;;;;1.23;0.60;;;;;;;;;;5048846;28;20041;-64
2022/08/31 02:41:31;;;;;;;0.63;0.40;;;;;;;;;;5052623;28;20033;-64
2022/08/31 02:43:57;;;;;;;0.88;0.63;;;;;;;;;;5058506;28;20040;-64
2022/08/31 02:46:23;;;;;;;1.95;0.57;;;;;;;;;;5049284;28;20037;-64
2022/08/31 02:48:49;;;;;;;2.80;0.60;;;;;;;;;;5056729;28;20040;-64
2022/08/31 02:51:15;;;;;;;0.70;0.50;;;;;;;;;;5054926;28;20414;-64
2022/08/31 02:53:41;;;;;;;1.30;0.57;;;;;;;;;;5050840;28;20066;-64
2022/08/31 02:56:07;;;;;;;1.20;0.68;;;;;;;;;;5050360;28;20029;-64
2022/08/31 02:58:34;;;;;;;0.88;0.50;;;;;;;;;;5061104;28;20040;-64
2022/08/31 03:01:00;;;;;;;0.82;0.40;;;;;;;;;;5048527;28;20087;-64
2022/08/31 03:03:26;;;;;;;0.57;0.45;;;;;;;;;;5062274;28;20048;-64
2022/08/31 03:05:52;;;;;;;1.95;0.55;;;;;;;;;;5058371;28;20055;-64
2022/08/31 03:08:18;;;;;;;0.60;0.52;;;;;;;;;;5050067;28;20120;-64
2022/08/31 03:10:45;;;;;;;1.00;0.55;;;;;;;;;;5061025;28;20116;-64
2022/08/31 03:13:11;;;;;;;0.77;0.40;;;;;;;;;;5050592;28;20511;-64
2022/08/31 03:15:37;;;;;;;2.95;0.40;;;;;;;;;;5053600;28;20383;-64
2022/08/31 03:18:03;;;;;;;0.77;0.50;;;;;;;;;;5050313;28;20087;-64
2022/08/31 03:20:29;;;;;;;0.60;0.50;;;;;;;;;;5051399;28;20099;-64
2022/08/31 03:22:55;;;;;;;0.88;0.60;;;;;;;;;;5038026;28;20460;-64
2022/08/31 03:25:22;;;;;;;1.75;0.60;;;;;;;;;;5043319;28;20120;-64
2022/08/31 03:27:48;;;;;;;1.50;0.70;;;;;;;;;;5055659;28;20486;-64
2022/08/31 03:30:15;;;;;;;1.13;0.50;;;;;;;;;;5059279;28;20051;-64
2022/08/31 03:32:41;;;;;;;2.67;0.70;;;;;;;;;;5034479;28;20449;-64
2022/08/31 03:35:07;;;;;;;1.30;0.68;;;;;;;;;;5048224;28;20040;-64
2022/08/31 03:37:34;;;;;;;1.85;0.82;;;;;;;;;;5052131;28;20379;-64
2022/08/31 03:40:00;;;;;;;1.42;0.70;;;;;;;;;;5055774;28;20040;-64
2022/08/31 03:42:27;;;;;;;1.58;0.60;;;;;;;;;;5056400;28;20048;-64
2022/08/31 03:44:53;;;;;;;1.35;0.70;;;;;;;;;;5040758;28;20178;-64
2022/08/31 03:47:20;;;;;;;0.82;0.50;;;;;;;;;;5049524;28;20048;-64
2022/08/31 03:49:46;;;;;;;1.38;0.80;;;;;;;;;;5038391;28;20144;-64
2022/08/31 03:52:12;;;;;;;1.30;0.85;;;;;;;;;;5041874;28;20133;-64
2022/08/31 03:54:38;;;;;;;0.88;0.65;;;;;;;;;;5043209;28;20033;-64
2022/08/31 03:57:04;;;;;;;1.83;0.80;;;;;;;;;;5047058;28;20043;-64
2022/08/31 03:59:30;;;;;;;3.42;0.80;;;;;;;;;;5049420;28;20036;-64
2022/08/31 04:01:56;;;;;;;1.95;0.95;;;;;;;;;;5039428;28;20041;-64
2022/08/31 04:04:22;;;;;;;1.40;0.80;;;;;;;;;;5045775;28;20513;-64
2022/08/31 04:06:48;;;;;;;1.10;0.75;;;;;;;;;;5044492;28;20036;-64
2022/08/31 04:09:14;;;;;;;0.95;0.70;;;;;;;;;;5044030;28;20037;-64
2022/08/31 04:11:42;;;;;;;2.47;0.93;;;;;;;;;;5056205;28;20062;-64
2022/08/31 04:14:08;;;;;;;2.97;0.60;;;;;;;;;;5064080;28;20479;-64
2022/08/31 04:16:34;;;;;;;1.27;0.85;;;;;;;;;;5049554;28;20410;-64
2022/08/31 04:19:00;;;;;;;1.65;0.70;;;;;;;;;;5042490;28;20037;-64
2022/08/31 04:21:29;;;;;;;1.35;0.88;;;;;;;;;;5043570;28;20051;-64
2022/08/31 04:23:56;;;;;;;1.23;1.00;;;;;;;;;;5049365;22;20057;-63
2022/08/31 04:26:23;;;;;;;1.30;0.73;;;;;;;;;;5030109;28;20514;-63
2022/08/31 04:28:49;;;;;;;1.13;0.77;;;;;;;;;;5041093;28;20044;-63
2022/08/31 04:31:16;;;;;;;1.98;0.98;;;;;;;;;;5040292;28;20065;-63
2022/08/31 04:33:42;;;;;;;1.42;0.95;;;;;;;;;;5035955;28;20045;-63
2022/08/31 04:36:09;;;;;;;2.05;0.80;;;;;;;;;;5027337;28;20044;-63
2022/08/31 04:38:35;;;;;;;2.45;0.90;;;;;;;;;;5010536;28;20075;-62
2022/08/31 04:41:05;;;;;;;2.67;0.90;;;;;;;;;;5022498;28;20068;-63
2022/08/31 04:43:32;;;;;;;2.85;1.08;;;;;;;;;;5023938;28;20045;-62
2022/08/31 04:45:58;;;;;;;1.73;0.90;;;;;;;;;;5005132;28;20060;-63
2022/08/31 04:48:24;;;;;;;1.60;1.10;;;;;;;;;;5029360;28;20037;-63
2022/08/31 04:50:50;;;;;;;1.90;0.93;;;;;;;;;;5027262;28;20042;-62
2022/08/31 04:53:16;;;;;;;2.03;1.10;;;;;;;;;;5007646;28;20080;-63
2022/08/31 04:55:43;;;;;;;1.67;1.02;;;;;;;;;;5025477;28;20433;-63
2022/08/31 04:58:09;;;;;;;1.73;1.10;;;;;;;;;;5029677;28;20504;-63
2022/08/31 05:00:36;;;;;;;1.17;0.95;;;;;;;;;;5025608;28;20072;-62
2022/08/31 05:03:02;;;;;;;1.95;1.30;;;;;;;;;;5021066;28;20132;-62
2022/08/31 05:05:28;;;;;;;1.65;1.10;;;;;;;;;;5024690;28;20041;-62
2022/08/31 05:07:54;;;;;;;3.03;0.90;;;;;;;;;;5041197;28;20392;-62
2022/08/31 05:10:20;;;;;;;3.47;1.20;;;;;;;;;;5022776;28;20044;-62
2022/08/31 05:12:46;;;;;;;1.77;0.98;;;;;;;;;;5028085;28;20044;-62
2022/08/31 05:15:12;;;;;;;3.53;1.42;;;;;;;;;;5030386;28;20034;-62
2022/08/31 05:17:38;;;;;;;3.10;1.23;;;;;;;;;;5013883;28;20045;-62
2022/08/31 05:20:05;;;;;;;0.88;0.80;;;;;;;;;;5027893;28;20095;-62
2022/08/31 05:22:31;;;;;;;1.70;1.10;;;;;;;;;;5033414;28;20052;-62
2022/08/31 05:24:57;;;;;;;3.22;1.20;;;;;;;;;;5027299;28;20042;-62
2022/08/31 05:27:23;;;;;;;6.10;1.13;;;;;;;;;;5027522;28;20179;-62
2022/08/31 05:29:49;;;;;;;1.45;1.10;;;;;;;;;;5031631;28;20049;-63
2022/08/31 05:32:15;;;;;;;2.47;1.10;;;;;;;;;;5025281;28;20480;-62
2022/08/31 05:34:41;;;;;;;2.50;1.00;;;;;;;;;;5025964;28;20049;-62
2022/08/31 05:37:07;;;;;;;2.05;1.33;;;;;;;;;;5028252;28;20037;-62
2022/08/31 05:39:33;;;;;;;1.20;1.10;;;;;;;;;;5025516;28;20044;-62
2022/08/31 05:41:59;;;;;;;2.15;1.20;;;;;;;;;;5027280;28;20037;-62
2022/08/31 05:44:25;;;;;;;3.28;1.48;;;;;;;;;;5028933;28;20045;-62
2022/08/31 05:46:51;;;;;;;2.30;1.20;;;;;;;;;;5026217;28;20053;-62
2022/08/31 05:49:17;;;;;;;2.53;1.25;;;;;;;;;;5031734;28;20502;-62
2022/08/31 05:51:43;;;;;;;2.80;1.30;;;;;;;;;;5015763;28;20052;-62
2022/08/31 05:54:10;;;;;;;4.68;1.65;;;;;;;;;;5038643;28;20041;-62
2022/08/31 05:56:36;;;;;;;2.75;1.10;;;;;;;;;;5036589;28;20053;-62
2022/08/31 05:59:02;;;;;;;3.45;1.45;;;;;;;;;;5035774;28;20037;-62
2022/08/31 06:01:30;;;;;;;3.53;1.05;;;;;;;;;;5029075;28;20034;-62
2022/08/31 06:03:57;;;;;;;2.55;1.17;;;;;;;;;;5035392;28;20051;-62
2022/08/31 06:06:23;;;;;;;2.45;1.33;;;;;;;;;;5020146;28;20048;-62
2022/08/31 06:08:52;;;;;;;2.63;1.40;;;;;;;;;;5037941;28;20110;-62
2022/08/31 06:11:20;;;;;;;3.15;1.77;;;;;;;;;;5041313;28;20120;-62
2022/08/31 06:13:48;;;;;;;3.40;1.45;;;;;;;;;;5032493;28;20044;-62
2022/08/31 06:16:16;;;;;;;4.65;1.35;;;;;;;;;;5031566;28;20041;-62
2022/08/31 06:18:48;;;;;;;3.38;1.67;;;;;;;;;;5030486;28;20038;-62
2022/08/31 06:21:15;;;;;;;2.33;1.50;;;;;;;;;;5038247;28;20041;-62
2022/08/31 06:23:41;;;;;;;2.10;1.45;;;;;;;;;;5028388;28;20411;-61
2022/08/31 06:26:11;;;;;;;3.63;1.77;;;;;;;;;;5032952;28;20044;-62
2022/08/31 06:28:38;;;;;;;2.42;1.30;;;;;;;;;;5029351;28;20060;-63
2022/08/31 06:31:07;;;;;;;2.60;1.50;;;;;;;;;;5034559;28;20628;-62
2022/08/31 06:33:34;;;;;;;3.22;1.48;;;;;;;;;;5022932;28;20049;-62
2022/08/31 06:36:00;;;;;;;2.50;1.25;;;;;;;;;;5030895;28;20052;-61
2022/08/31 06:38:26;;;;;;;2.00;1.27;;;;;;;;;;5033711;28;20116;-61
2022/08/31 06:40:52;;;;;;;2.50;1.40;;;;;;;;;;5032045;28;20124;-62
2022/08/31 06:43:19;;;;;;;2.45;1.50;;;;;;;;;;5031781;28;20037;-62
2022/08/31 06:45:45;;;;;;;4.40;1.38;;;;;;;;;;5029440;28;20053;-61
2022/08/31 06:48:11;;;;;;;2.95;1.45;;;;;;;;;;5025885;28;20072;-62
2022/08/31 06:50:40;;;;;;;2.65;1.50;;;;;;;;;;5037000;28;20183;-62
2022/08/31 06:53:06;;;;;;;3.30;1.27;;;;;;;;;;5032253;28;20045;-62
2022/08/31 06:55:33;;;;;;;2.78;1.20;;;;;;;;;;5029731;28;20506;-62
2022/08/31 06:57:59;;;;;;;2.60;1.45;;;;;;;;;;5012726;28;20049;-62
2022/08/31 07:00:25;;;;;;;3.38;1.23;;;;;;;;;;5035597;28;20033;-62
2022/08/31 07:02:51;;;;;;;2.28;1.35;;;;;;;;;;5029089;28;20048;-62
2022/08/31 07:05:18;;;;;;;2.50;1.42;;;;;;;;;;5032934;28;20033;-62
2022/08/31 07:07:44;;;;;;;5.50;1.30;;;;;;;;;;5045698;28;20120;-62
2022/08/31 07:10:10;;;;;;;4.82;1.50;;;;;;;;;;5036447;28;20426;-62
2022/08/31 07:12:36;;;;;;;3.88;1.50;;;;;;;;;;5038878;28;20037;-62
2022/08/31 07:15:02;;;;;;;4.13;1.20;;;;;;;;;;5022243;28;20045;-62
2022/08/31 07:17:28;;;;;;;2.08;1.33;;;;;;;;;;5023464;28;20483;-62
2022/08/31 07:19:54;;;;;;;1.83;1.17;;;;;;;;;;5026282;28;20033;-62
2022/08/31 07:22:20;;;;;;;2.30;1.35;;;;;;;;;;5027172;28;20084;-62
2022/08/31 07:24:46;;;;;;;1.95;1.17;;;;;;;;;;5028318;28;20029;-62
2022/08/31 07:27:15;;;;;;;2.47;1.40;;;;;;;;;;5039665;28;20041;-62
2022/08/31 07:29:41;;;;;;;2.38;1.25;;;;;;;;;;5044305;28;20045;-62
2022/08/31 07:32:14;;;;;;;3.60;1.50;;;;;;;;;;5035024;28;20564;-62
2022/08/31 07:34:40;;;;;;;2.65;1.33;;;;;;;;;;5040153;28;20044;-62
2022/08/31 07:42:42;;;;;;;3.58;1.10;;;;;;;;;;5038668;28;20041;-62
2022/08/31 07:45:11;;;;;;;2.47;1.42;;;;;;;;;;5024707;28;20034;-62
2022/08/31 07:47:43;;;;;;;3.30;1.30;;;;;;;;;;5035666;28;20044;-62
2022/08/31 07:50:09;;;;;;;1.85;1.00;;;;;;;;;;5052253;28;20191;-62
2022/08/31 07:52:43;;;;;;;1.98;1.10;;;;;;;;;;5052112;28;20368;-62
2022/08/31 07:55:10;;;;;;;4.05;1.30;;;;;;;;;;5044074;28;20049;-62
2022/08/31 07:57:42;;;;;;;2.05;1.05;;;;;;;;;;5044978;28;20045;-62
2022/08/31 08:00:09;;;;;;;3.53;1.10;;;;;;;;;;5035653;28;20364;-62
2022/08/31 08:02:39;;;;;;;2.38;0.82;;;;;;;;;;5043969;28;20037;-62
2022/08/31 08:05:09;;;;;;;1.63;0.90;;;;;;;;;;5052224;28;20041;-62
2022/08/31 08:07:36;;;;;;;1.42;0.90;;;;;;;;;;5050265;28;20287;-62
2022/08/31 08:10:05;;;;;;;2.67;1.02;;;;;;;;;;5038949;28;20503;-62
2022/08/31 08:12:35;;;;;;;2.10;0.90;;;;;;;;;;5039970;28;20528;-62
2022/08/31 08:15:01;;;;;;;4.45;1.13;;;;;;;;;;5038907;28;20037;-62
2022/08/31 08:17:27;;;;;;;2.80;0.90;;;;;;;;;;5039927;28;20499;-62
2022/08/31 08:19:53;;;;;;;1.63;0.70;;;;;;;;;;5031486;28;20033;-62
2022/08/31 08:22:19;;;;;;;2.08;0.65;;;;;;;;;;5032235;28;20030;-62
2022/08/31 08:24:46;;;;;;;4.15;0.95;;;;;;;;;;5030836;28;20037;-62
2022/08/31 08:27:12;;;;;;;7.85;1.33;;;;;;;;;;5039701;28;20063;-62
2022/08/31 08:29:39;;;;;;;2.58;0.70;;;;;;;;;;5034971;28;20387;-62
2022/08/31 08:32:07;;;;;;;1.85;0.85;;;;;;;;;;5043026;28;20045;-62
2022/08/31 08:34:34;;;;;;;3.53;0.80;;;;;;;;;;5051239;28;20132;-62
2022/08/31 08:37:00;;;;;;;1.00;0.75;;;;;;;;;;5052094;28;20146;-62
2022/08/31 08:39:26;;;;;;;1.55;0.93;;;;;;;;;;5048428;28;20033;-62
2022/08/31 08:41:54;;;;;;;4.85;0.95;;;;;;;;;;5039667;28;20041;-62
2022/08/31 08:44:21;;;;;;;3.83;0.93;;;;;;;;;;5016032;28;20045;-62
2022/08/31 08:46:50;;;;;;;1.70;0.73;;;;;;;;;;5037577;28;20076;-62
2022/08/31 08:49:28;;;;;;;2.33;1.30;;;;;;;;;;5031271;28;20067;-62
2022/08/31 08:51:56;;;;;;;3.08;0.75;;;;;;;;;;5031826;28;20407;-62
2022/08/31 08:54:49;;;;;;;3.67;1.02;;;;;;;;;;5032376;28;20557;-62
2022/08/31 08:57:23;;;;;;;1.95;0.90;;;;;;;;;;5037608;28;20078;-62
2022/08/31 08:59:52;;;;;;;2.00;0.90;;;;;;;;;;5039355;28;20095;-63
2022/08/31 09:02:21;;;;;;;5.20;0.98;;;;;;;;;;5049673;28;20041;-63
2022/08/31 09:04:59;;;;;;;4.20;1.20;;;;;;;;;;5051228;28;20094;-63
2022/08/31 09:07:29;;;;;;;2.15;0.70;;;;;;;;;;5051067;28;20044;-63
2022/08/31 09:10:14;;;;;;;2.25;0.90;;;;;;;;;;5042587;28;20087;-62
2022/08/31 09:12:49;;;;;;;3.17;0.70;;;;;;;;;;5031028;28;20077;-62
2022/08/31 09:15:45;;;;;;;2.88;0.80;;;;;;;;;;5038194;28;20049;-62
2022/08/31 09:18:29;;;;;;;3.17;0.85;;;;;;;;;;5032306;28;20048;-62
2022/08/31 09:21:02;;;;;;;3.42;0.90;;;;;;;;;;5022988;28;20510;-63
2022/08/31 09:23:28;;;;;;;3.17;0.90;;;;;;;;;;5030515;28;20187;-63
2022/08/31 09:25:57;;;;;;;2.25;0.60;;;;;;;;;;5049839;28;20044;-63
2022/08/31 09:28:47;;;;;;;2.88;0.85;;;;;;;;;;5026429;28;20041;-63
2022/08/31 09:31:45;;;;;;;2.88;0.70;;;;;;;;;;5029236;28;20048;-63
2022/08/31 09:34:27;;;;;;;3.17;0.70;;;;;;;;;;4986134;28;20137;-63
2022/08/31 09:37:13;;;;;;;1.98;0.80;;;;;;;;;;5025166;28;20134;-63
2022/08/31 09:39:40;;;;;;;1.88;0.75;;;;;;;;;;5025444;28;20491;-62
2022/08/31 09:42:16;;;;;;;3.13;0.75;;;;;;;;;;5029916;28;20491;-63
2022/08/31 09:44:42;;;;;;;2.28;0.50;;;;;;;;;;5024506;28;20588;-63
2022/08/31 09:47:47;;;;;;;3.13;0.50;;;;;;;;;;5038699;28;20048;-62
2022/08/31 09:50:27;;;;;;;12.43;1.42;;;;;;;;;;5016495;28;20050;-63
2022/08/31 09:56:02;;;;;;;1.60;0.70;;;;;;;;;;5024919;28;20045;-63
2022/08/31 09:58:29;;;;;;;1.33;0.65;;;;;;;;;;5043601;28;20033;-63
2022/08/31 10:00:56;;;;;;;1.75;0.88;;;;;;;;;;5034431;28;20041;-62
2022/08/31 10:03:27;;;;;;;6.93;1.05;;;;;;;;;;5037618;28;20049;-63
2022/08/31 10:05:54;;;;;;;1.55;0.52;;;;;;;;;;5027960;28;20045;-62
2022/08/31 10:08:38;;;;;;;2.80;0.68;;;;;;;;;;5017795;28;20037;-63
2022/08/31 10:11:16;;;;;;;4.50;1.00;;;;;;;;;;5041346;28;20040;-62
2022/08/31 10:13:55;;;;;;;2.58;0.60;;;;;;;;;;5014388;28;20050;-63
2022/08/31 10:16:40;;;;;;;4.05;0.80;;;;;;;;;;5014465;28;20168;-62
2022/08/31 10:19:14;;;;;;;3.75;0.90;;;;;;;;;;5016240;28;20143;-63
2022/08/31 10:21:50;;;;;;;1.70;0.80;;;;;;;;;;5033362;28;20492;-63
2022/08/31 10:24:32;;;;;;;3.33;0.82;;;;;;;;;;5052736;22;20048;-63
2022/08/31 10:27:11;;;;;;;1.80;0.80;;;;;;;;;;5011122;28;20040;-63
2022/08/31 10:29:44;;;;;;;1.08;0.63;;;;;;;;;;5034065;28;20041;-63
2022/08/31 10:32:29;;;;;;;3.13;0.90;;;;;;;;;;5045351;28;20083;-64
2022/08/31 10:35:36;;;;;;;2.58;0.60;;;;;;;;;;5031228;28;20071;-64
2022/08/31 10:38:16;;;;;;;1.88;0.60;;;;;;;;;;4929714;29;20138;-64
2022/08/31 10:40:42;;;;;;;;;;;;;;;;;;4933037;29;20048;-64
2022/08/31 10:43:17;;;;;;;1.40;1.05;;;;;;;;;;4989174;28;19924;-64
2022/08/31 10:45:45;;;;;;;2.13;0.52;;;;;;;;;;5025341;28;20052;-64
2022/08/31 10:48:12;;;;;;;3.60;0.60;;;;;;;;;;5033078;28;20120;-64
2022/08/31 10:50:45;;;;;;;2.33;0.75;;;;;;;;;;5032379;28;20038;-64
2022/08/31 10:53:12;;;;;;;3.17;0.70;;;;;;;;;;5040408;28;20041;-64
2022/08/31 10:55:54;;;;;;;1.50;0.70;;;;;;;;;;5035358;28;20121;-65
2022/08/31 10:58:32;;;;;;;5.25;0.60;;;;;;;;;;5033768;28;20112;-64
2022/08/31 11:01:06;;;;;;;1.83;0.70;;;;;;;;;;5016180;28;20037;-63
2022/08/31 11:03:35;;;;;;;2.28;0.60;;;;;;;;;;5033151;28;20041;-64
2022/08/31 11:06:11;;;;;;;4.20;0.80;;;;;;;;;;5032890;28;20045;-64
2022/08/31 11:09:07;;;;;;;2.97;0.70;;;;;;;;;;5011837;28;20061;-64
2022/08/31 11:11:34;;;;;;;3.55;0.57;;;;;;;;;;4985878;28;20050;-64
2022/08/31 11:14:13;;;;;;;1.67;0.70;;;;;;;;;;5031643;28;20088;-64
2022/08/31 11:16:52;;;;;;;3.80;0.60;;;;;;;;;;5033135;28;20037;-64
2022/08/31 11:19:24;;;;;;;3.85;0.50;;;;;;;;;;5031302;28;20029;-64
2022/08/31 11:22:01;;;;;;;2.50;0.63;;;;;;;;;;5033670;28;20117;-64
2022/08/31 11:24:42;;;;;;;0.82;0.57;;;;;;;;;;5019742;28;20131;-64
2022/08/31 11:27:10;;;;;;;1.58;0.70;;;;;;;;;;5031915;28;20552;-64
2022/08/31 11:29:42;;;;;;;2.92;0.70;;;;;;;;;;5026687;28;20053;-64
2022/08/31 11:32:09;;;;;;;2.30;0.60;;;;;;;;;;5032625;28;20037;-63
2022/08/31 11:34:45;;;;;;;0.95;0.60;;;;;;;;;;5031693;28;20120;-64
2022/08/31 11:37:12;;;;;;;3.92;0.80;;;;;;;;;;5032378;28;20403;-64
2022/08/31 11:39:43;;;;;;;1.30;0.68;;;;;;;;;;5031748;28;20036;-64
2022/08/31 11:42:11;;;;;;;;;;;;;;;;;;5032614;28;20042;-64
2022/08/31 11:44:38;;;;;;;3.70;0.80;;;;;;;;;;5029060;28;20393;-64
2022/08/31 11:47:14;;;;;;;0.88;0.70;;;;;;;;;;5031083;28;20041;-64
2022/08/31 11:49:43;;;;;;;5.15;0.98;;;;;;;;;;5024212;28;20140;-64
2022/08/31 11:52:24;;;;;;;1.05;0.70;;;;;;;;;;5031330;28;20037;-64
2022/08/31 11:54:51;;;;;;;3.42;0.75;;;;;;;;;;5010963;28;20046;-64
2022/08/31 11:57:24;;;;;;;0.85;0.60;;;;;;;;;;5032229;28;20453;-64
2022/08/31 11:59:52;;;;;;;3.65;0.73;;;;;;;;;;5030771;28;20034;-64
2022/08/31 12:02:21;;;;;;;1.98;0.90;;;;;;;;;;5031823;28;20377;-64
2022/08/31 12:05:01;;;;;;;1.30;0.68;;;;;;;;;;5031615;28;20045;-63
2022/08/31 12:07:27;;;;;;;2.17;0.60;;;;;;;;;;5029416;28;20050;-64
2022/08/31 12:10:12;;;;;;;1.88;0.60;;;;;;;;;;5002402;28;20048;-64
2022/08/31 12:12:56;;;;;;;1.60;0.80;;;;;;;;;;5024498;28;20037;-64
2022/08/31 12:15:31;;;;;;;1.90;0.70;;;;;;;;;;5030409;28;20418;-64
2022/08/31 12:18:29;;;;;;;2.95;0.80;;;;;;;;;;5005544;28;20041;-64
2022/08/31 12:23:58;;;;;;;5.50;0.70;;;;;;;;;;5010544;28;20057;-64
2022/08/31 12:26:43;;;;;;;1.83;0.80;;;;;;;;;;5028033;28;20517;-65
2022/08/31 12:29:19;;;;;;;1.70;0.85;;;;;;;;;;5030062;28;20038;-65
2022/08/31 12:32:00;;;;;;;0.88;0.47;;;;;;;;;;5019866;28;20029;-65
2022/08/31 12:34:26;;;;;;;0.70;0.57;;;;;;;;;;5029884;28;20095;-65
2022/08/31 12:36:52;;;;;;;0.93;0.70;;;;;;;;;;5030228;28;20044;-64
2022/08/31 12:39:20;;;;;;;2.67;0.52;;;;;;;;;;5026113;28;20045;-65
2022/08/31 12:41:54;;;;;;;1.67;0.70;;;;;;;;;;5008405;28;20403;-64
2022/08/31 12:44:21;;;;;;;1.65;0.57;;;;;;;;;;5023898;28;20041;-65
2022/08/31 12:46:56;;;;;;;1.77;0.63;;;;;;;;;;5007257;28;20043;-64
2022/08/31 12:49:22;;;;;;;1.17;0.60;;;;;;;;;;5022948;28;20076;-65
2022/08/31 12:51:54;;;;;;;1.27;0.50;;;;;;;;;;5023838;28;20042;-65
2022/08/31 12:54:20;;;;;;;1.65;0.60;;;;;;;;;;5021438;28;20049;-65
2022/08/31 12:57:05;;;;;;;0.60;0.50;;;;;;;;;;5021613;28;20034;-65
2022/08/31 12:59:43;;;;;;;2.10;0.60;;;;;;;;;;5012443;28;20037;-65
2022/08/31 13:02:11;;;;;;;2.63;0.52;;;;;;;;;;5022070;28;20037;-65
2022/08/31 13:04:40;;;;;;;1.20;0.63;;;;;;;;;;5017411;28;20451;-65
2022/08/31 13:07:23;;;;;;;1.60;0.60;;;;;;;;;;5030681;28;20037;-64
2022/08/31 13:10:10;;;;;;;1.83;0.70;;;;;;;;;;5025788;28;20049;-64
2022/08/31 13:12:37;;;;;;;0.85;0.50;;;;;;;;;;5024528;28;20088;-65
2022/08/31 13:15:03;;;;;;;1.80;0.65;;;;;;;;;;5024492;28;20045;-64
2022/08/31 13:17:34;;;;;;;2.58;0.65;;;;;;;;;;5006987;28;20483;-64
2022/08/31 13:20:00;;;;;;;;;;;;;;;;;;5013577;28;20045;-64
2022/08/31 13:22:29;;;;;;;1.55;0.77;;;;;;;;;;5027821;28;21551;-64
2022/08/31 13:24:57;;;;;;;1.58;0.50;;;;;;;;;;5023811;28;20087;-64
2022/08/31 13:27:29;;;;;;;3.00;0.60;;;;;;;;;;5008809;28;20057;-65
2022/08/31 13:30:00;;;;;;;2.50;0.50;;;;;;;;;;5029095;28;20427;-64
2022/08/31 13:32:31;;;;;;;0.80;0.70;;;;;;;;;;5028853;28;20060;-65
2022/08/31 13:34:57;;;;;;;;;;;;;;;;;;5033335;28;20051;-64
2022/08/31 13:37:30;;;;;;;1.98;0.60;;;;;;;;;;5034027;28;20015;-64
2022/08/31 13:39:57;;;;;;;1.50;0.52;;;;;;;;;;5033584;28;20045;-64
2022/08/31 13:42:23;;;;;;;2.67;0.68;;;;;;;;;;5030272;28;20091;-64
2022/08/31 13:44:54;;;;;;;2.13;0.60;;;;;;;;;;5033896;28;20519;-64
2022/08/31 13:47:22;;;;;;;2.55;0.68;;;;;;;;;;5038116;28;20120;-64
2022/08/31 13:49:51;;;;;;;0.68;0.65;;;;;;;;;;5034191;28;20037;-64
2022/08/31 13:52:28;;;;;;;3.33;0.77;;;;;;;;;;5033734;28;20073;-64
2022/08/31 13:54:59;;;;;;;2.55;0.60;;;;;;;;;;5032803;28;20052;-64
2022/08/31 13:57:27;;;;;;;1.67;0.80;;;;;;;;;;5030763;28;20114;-64
2022/08/31 13:59:53;;;;;;;1.98;0.52;;;;;;;;;;5034231;28;20175;-64
2022/08/31 14:02:21;;;;;;;2.10;0.60;;;;;;;;;;5031475;28;20033;-64
2022/08/31 14:07:28;;;;;;;1.70;0.80;;;;;;;;;;5026558;28;20156;-64
2022/08/31 14:10:02;;;;;;;3.42;0.63;;;;;;;;;;5033457;28;20064;-64
2022/08/31 14:12:36;;;;;;;2.53;0.60;;;;;;;;;;5033070;28;20372;-64
2022/08/31 14:15:16;;;;;;;1.75;0.70;;;;;;;;;;5034063;28;20088;-64
2022/08/31 14:17:43;;;;;;;2.03;0.65;;;;;;;;;;5014379;28;20046;-64
2022/08/31 14:20:36;;;;;;;2.95;0.65;;;;;;;;;;5029236;28;20037;-64
2022/08/31 14:23:25;;;;;;;0.90;0.50;;;;;;;;;;5016039;28;20050;-64
2022/08/31 14:25:52;;;;;;;5.30;0.90;;;;;;;;;;5034620;28;20041;-64
2022/08/31 14:28:26;;;;;;;1.00;0.70;;;;;;;;;;5016383;28;20045;-64
2022/08/31 14:30:53;;;;;;;1.90;0.55;;;;;;;;;;5032601;28;20041;-63
2022/08/31 14:33:19;;;;;;;2.10;0.60;;;;;;;;;;5031175;28;20048;-64
2022/08/31 14:35:46;;;;;;;4.47;0.75;;;;;;;;;;5024965;28;20044;-64
2022/08/31 14:38:13;;;;;;;3.17;0.60;;;;;;;;;;5032970;28;20176;-64
2022/08/31 14:40:41;;;;;;;2.45;0.73;;;;;;;;;;5013129;28;20077;-64
2022/08/31 14:43:07;;;;;;;0.85;0.50;;;;;;;;;;4996008;28;20045;-64
2022/08/31 14:45:35;;;;;;;1.42;0.50;;;;;;;;;;5032481;28;20115;-64
2022/08/31 14:48:01;;;;;;;2.75;0.70;;;;;;;;;;5024517;28;20671;-64
2022/08/31 14:50:28;;;;;;;4.28;0.80;;;;;;;;;;5020404;28;20045;-64
2022/08/31 14:52:56;;;;;;;0.55;0.50;;;;;;;;;;5024851;28;20112;-64
2022/08/31 14:55:23;;;;;;;2.72;0.77;;;;;;;;;;5031770;28;20049;-64
2022/08/31 14:57:54;;;;;;;1.23;0.70;;;;;;;;;;5027589;28;20411;-64
2022/08/31 15:00:22;;;;;;;2.35;0.80;;;;;;;;;;5029087;28;20052;-64
2022/08/31 15:02:51;;;;;;;2.50;0.80;;;;;;;;;;5028910;28;20124;-64
2022/08/31 15:05:22;;;;;;;1.23;0.55;;;;;;;;;;5031099;28;20116;-64
2022/08/31 15:07:49;;;;;;;2.15;0.70;;;;;;;;;;5028156;28;20063;-64
2022/08/31 15:10:17;;;;;;;1.08;0.52;;;;;;;;;;5028356;28;20069;-64
2022/08/31 15:12:44;;;;;;;2.78;0.60;;;;;;;;;;5030044;28;20499;-64
2022/08/31 15:15:10;;;;;;;1.85;0.60;;;;;;;;;;5027268;28;20081;-64
2022/08/31 15:17:38;;;;;;;3.30;0.60;;;;;;;;;;5022650;28;20038;-64